<?xml version="1.0" encoding="UTF-8" standalone="no" ?>
<gpx xmlns="http://www.topografix.com/GPX/1/1" xmlns:xsi="http://www.w3.org/2001/XMLSchema-instance" xsi:schemaLocation="http://www.topografix.com/GPX/1/1 http://www.topografix.com/GPX/1/1/gpx.xsd" version="1.1" creator="VisuGPX - https://www.visugpx.com">
  <metadata>
    <name>VacancesDricouZoe</name>
  </metadata>
  <trk>
    <name><![CDATA[Journal actif: 2021-07-01 19:15]]></name>
    <trkseg>
      <trkpt lat="44.59712" lon="-1.19748">
        <ele>45.32</ele>
        <time>2021-07-01T21:15:04Z</time>
      </trkpt>
      <trkpt lat="44.59709" lon="-1.1975">
        <ele>41.95</ele>
        <time>2021-07-01T21:15:24Z</time>
      </trkpt>
      <trkpt lat="44.59707" lon="-1.19752">
        <ele>40.99</ele>
        <time>2021-07-01T21:15:58Z</time>
      </trkpt>
      <trkpt lat="44.59705" lon="-1.19756">
        <ele>39.55</ele>
        <time>2021-07-01T21:16:37Z</time>
      </trkpt>
      <trkpt lat="44.59705" lon="-1.19758">
        <ele>39.07</ele>
        <time>2021-07-01T21:17:24Z</time>
      </trkpt>
      <trkpt lat="44.59704" lon="-1.19759">
        <ele>38.11</ele>
        <time>2021-07-01T21:18:06Z</time>
      </trkpt>
      <trkpt lat="44.59707" lon="-1.19743">
        <ele>37.15</ele>
        <time>2021-07-01T21:18:26Z</time>
      </trkpt>
      <trkpt lat="44.59722" lon="-1.19708">
        <ele>33.3</ele>
        <time>2021-07-01T21:18:39Z</time>
      </trkpt>
      <trkpt lat="44.59722" lon="-1.19706">
        <ele>32.82</ele>
        <time>2021-07-01T21:18:40Z</time>
      </trkpt>
      <trkpt lat="44.59713" lon="-1.19698">
        <ele>28.5</ele>
        <time>2021-07-01T21:18:49Z</time>
      </trkpt>
      <trkpt lat="44.59694" lon="-1.1974">
        <ele>22.73</ele>
        <time>2021-07-01T21:19:04Z</time>
      </trkpt>
      <trkpt lat="44.59683" lon="-1.19782">
        <ele>18.88</ele>
        <time>2021-07-01T21:19:15Z</time>
      </trkpt>
      <trkpt lat="44.59675" lon="-1.198">
        <ele>18.4</ele>
        <time>2021-07-01T21:19:18Z</time>
      </trkpt>
      <trkpt lat="44.59673" lon="-1.19799">
        <ele>18.88</ele>
        <time>2021-07-01T21:19:19Z</time>
      </trkpt>
      <trkpt lat="44.59671" lon="-1.19798">
        <ele>18.88</ele>
        <time>2021-07-01T21:19:20Z</time>
      </trkpt>
      <trkpt lat="44.59669" lon="-1.19797">
        <ele>18.4</ele>
        <time>2021-07-01T21:19:21Z</time>
      </trkpt>
      <trkpt lat="44.59667" lon="-1.19795">
        <ele>18.4</ele>
        <time>2021-07-01T21:19:22Z</time>
      </trkpt>
      <trkpt lat="44.59698" lon="-1.19707">
        <ele>14.56</ele>
        <time>2021-07-01T21:19:38Z</time>
      </trkpt>
      <trkpt lat="44.59701" lon="-1.19691">
        <ele>14.56</ele>
        <time>2021-07-01T21:19:42Z</time>
      </trkpt>
      <trkpt lat="44.59688" lon="-1.19691">
        <ele>16</ele>
        <time>2021-07-01T21:19:51Z</time>
      </trkpt>
      <trkpt lat="44.59685" lon="-1.19698">
        <ele>16</ele>
        <time>2021-07-01T21:19:53Z</time>
      </trkpt>
      <trkpt lat="44.59667" lon="-1.19752">
        <ele>18.4</ele>
        <time>2021-07-01T21:20:07Z</time>
      </trkpt>
      <trkpt lat="44.59664" lon="-1.19764">
        <ele>19.36</ele>
        <time>2021-07-01T21:20:10Z</time>
      </trkpt>
      <trkpt lat="44.59653" lon="-1.19782">
        <ele>22.25</ele>
        <time>2021-07-01T21:20:14Z</time>
      </trkpt>
      <trkpt lat="44.59652" lon="-1.19781">
        <ele>22.73</ele>
        <time>2021-07-01T21:20:15Z</time>
      </trkpt>
      <trkpt lat="44.5965" lon="-1.19779">
        <ele>22.73</ele>
        <time>2021-07-01T21:20:16Z</time>
      </trkpt>
      <trkpt lat="44.59649" lon="-1.19778">
        <ele>23.21</ele>
        <time>2021-07-01T21:20:17Z</time>
      </trkpt>
      <trkpt lat="44.59647" lon="-1.19777">
        <ele>23.69</ele>
        <time>2021-07-01T21:20:18Z</time>
      </trkpt>
      <trkpt lat="44.59646" lon="-1.19776">
        <ele>24.17</ele>
        <time>2021-07-01T21:20:19Z</time>
      </trkpt>
      <trkpt lat="44.59641" lon="-1.19767">
        <ele>24.65</ele>
        <time>2021-07-01T21:20:20Z</time>
      </trkpt>
      <trkpt lat="44.59647" lon="-1.19694">
        <ele>25.61</ele>
        <time>2021-07-01T21:20:35Z</time>
      </trkpt>
      <trkpt lat="44.59658" lon="-1.19678">
        <ele>27.05</ele>
        <time>2021-07-01T21:20:43Z</time>
      </trkpt>
      <trkpt lat="44.59659" lon="-1.19676">
        <ele>27.05</ele>
        <time>2021-07-01T21:20:44Z</time>
      </trkpt>
      <trkpt lat="44.59664" lon="-1.19669">
        <ele>27.53</ele>
        <time>2021-07-01T21:20:45Z</time>
      </trkpt>
      <trkpt lat="44.59664" lon="-1.19669">
        <ele>27.53</ele>
        <time>2021-07-01T21:20:46Z</time>
      </trkpt>
      <trkpt lat="44.59668" lon="-1.19668">
        <ele>27.05</ele>
        <time>2021-07-01T21:20:47Z</time>
      </trkpt>
      <trkpt lat="44.59672" lon="-1.19667">
        <ele>26.57</ele>
        <time>2021-07-01T21:20:48Z</time>
      </trkpt>
      <trkpt lat="44.59676" lon="-1.19665">
        <ele>26.57</ele>
        <time>2021-07-01T21:20:49Z</time>
      </trkpt>
      <trkpt lat="44.5968" lon="-1.19664">
        <ele>26.09</ele>
        <time>2021-07-01T21:20:50Z</time>
      </trkpt>
      <trkpt lat="44.59687" lon="-1.19664">
        <ele>26.09</ele>
        <time>2021-07-01T21:20:51Z</time>
      </trkpt>
      <trkpt lat="44.59727" lon="-1.19685">
        <ele>22.25</ele>
        <time>2021-07-01T21:21:00Z</time>
      </trkpt>
      <trkpt lat="44.59755" lon="-1.19707">
        <ele>21.29</ele>
        <time>2021-07-01T21:21:12Z</time>
      </trkpt>
      <trkpt lat="44.59771" lon="-1.19728">
        <ele>22.73</ele>
        <time>2021-07-01T21:21:30Z</time>
      </trkpt>
      <trkpt lat="44.59806" lon="-1.19753">
        <ele>23.21</ele>
        <time>2021-07-01T21:21:40Z</time>
      </trkpt>
      <trkpt lat="44.59813" lon="-1.19695">
        <ele>25.13</ele>
        <time>2021-07-01T21:21:50Z</time>
      </trkpt>
      <trkpt lat="44.59811" lon="-1.19691">
        <ele>25.13</ele>
        <time>2021-07-01T21:21:51Z</time>
      </trkpt>
      <trkpt lat="44.59805" lon="-1.19678">
        <ele>24.65</ele>
        <time>2021-07-01T21:21:53Z</time>
      </trkpt>
      <trkpt lat="44.59791" lon="-1.19669">
        <ele>24.65</ele>
        <time>2021-07-01T21:21:54Z</time>
      </trkpt>
      <trkpt lat="44.59791" lon="-1.19669">
        <ele>24.17</ele>
        <time>2021-07-01T21:21:55Z</time>
      </trkpt>
      <trkpt lat="44.59784" lon="-1.19665">
        <ele>24.17</ele>
        <time>2021-07-01T21:21:56Z</time>
      </trkpt>
      <trkpt lat="44.59776" lon="-1.1966">
        <ele>24.65</ele>
        <time>2021-07-01T21:21:57Z</time>
      </trkpt>
      <trkpt lat="44.5967" lon="-1.19617">
        <ele>26.09</ele>
        <time>2021-07-01T21:22:07Z</time>
      </trkpt>
      <trkpt lat="44.59502" lon="-1.19584">
        <ele>23.21</ele>
        <time>2021-07-01T21:22:19Z</time>
      </trkpt>
      <trkpt lat="44.59332" lon="-1.19599">
        <ele>19.36</ele>
        <time>2021-07-01T21:22:29Z</time>
      </trkpt>
      <trkpt lat="44.5919" lon="-1.19627">
        <ele>11.19</ele>
        <time>2021-07-01T21:22:40Z</time>
      </trkpt>
      <trkpt lat="44.59177" lon="-1.19632">
        <ele>9.27</ele>
        <time>2021-07-01T21:22:41Z</time>
      </trkpt>
      <trkpt lat="44.59164" lon="-1.19639">
        <ele>7.83</ele>
        <time>2021-07-01T21:22:42Z</time>
      </trkpt>
      <trkpt lat="44.59151" lon="-1.19646">
        <ele>6.87</ele>
        <time>2021-07-01T21:22:43Z</time>
      </trkpt>
      <trkpt lat="44.59037" lon="-1.19766">
        <ele>8.31</ele>
        <time>2021-07-01T21:22:53Z</time>
      </trkpt>
      <trkpt lat="44.58888" lon="-1.19962">
        <ele>17.44</ele>
        <time>2021-07-01T21:23:07Z</time>
      </trkpt>
      <trkpt lat="44.58818" lon="-1.20117">
        <ele>18.88</ele>
        <time>2021-07-01T21:23:17Z</time>
      </trkpt>
      <trkpt lat="44.58765" lon="-1.20315">
        <ele>12.63</ele>
        <time>2021-07-01T21:23:27Z</time>
      </trkpt>
      <trkpt lat="44.58681" lon="-1.20489">
        <ele>16</ele>
        <time>2021-07-01T21:23:38Z</time>
      </trkpt>
      <trkpt lat="44.58566" lon="-1.20716">
        <ele>23.69</ele>
        <time>2021-07-01T21:23:53Z</time>
      </trkpt>
      <trkpt lat="44.58464" lon="-1.20908">
        <ele>31.86</ele>
        <time>2021-07-01T21:24:07Z</time>
      </trkpt>
      <trkpt lat="44.5835" lon="-1.21056">
        <ele>41.47</ele>
        <time>2021-07-01T21:24:20Z</time>
      </trkpt>
      <trkpt lat="44.58228" lon="-1.21179">
        <ele>53.01</ele>
        <time>2021-07-01T21:24:33Z</time>
      </trkpt>
      <trkpt lat="44.58101" lon="-1.21226">
        <ele>54.93</ele>
        <time>2021-07-01T21:24:45Z</time>
      </trkpt>
      <trkpt lat="44.57957" lon="-1.21269">
        <ele>52.05</ele>
        <time>2021-07-01T21:24:56Z</time>
      </trkpt>
      <trkpt lat="44.5779" lon="-1.21282">
        <ele>57.82</ele>
        <time>2021-07-01T21:25:08Z</time>
      </trkpt>
      <trkpt lat="44.57719" lon="-1.21298">
        <ele>53.49</ele>
        <time>2021-07-01T21:25:13Z</time>
      </trkpt>
      <trkpt lat="44.57704" lon="-1.21305">
        <ele>53.97</ele>
        <time>2021-07-01T21:25:14Z</time>
      </trkpt>
      <trkpt lat="44.57587" lon="-1.21403">
        <ele>58.78</ele>
        <time>2021-07-01T21:25:23Z</time>
      </trkpt>
      <trkpt lat="44.57493" lon="-1.21568">
        <ele>60.22</ele>
        <time>2021-07-01T21:25:33Z</time>
      </trkpt>
      <trkpt lat="44.57395" lon="-1.21734">
        <ele>51.09</ele>
        <time>2021-07-01T21:25:43Z</time>
      </trkpt>
      <trkpt lat="44.57383" lon="-1.21749">
        <ele>49.16</ele>
        <time>2021-07-01T21:25:44Z</time>
      </trkpt>
      <trkpt lat="44.57313" lon="-1.21814">
        <ele>43.4</ele>
        <time>2021-07-01T21:25:49Z</time>
      </trkpt>
      <trkpt lat="44.57302" lon="-1.21829">
        <ele>41.95</ele>
        <time>2021-07-01T21:25:50Z</time>
      </trkpt>
      <trkpt lat="44.57291" lon="-1.21845">
        <ele>40.99</ele>
        <time>2021-07-01T21:25:51Z</time>
      </trkpt>
      <trkpt lat="44.57281" lon="-1.21865">
        <ele>40.51</ele>
        <time>2021-07-01T21:25:52Z</time>
      </trkpt>
      <trkpt lat="44.57271" lon="-1.21884">
        <ele>39.55</ele>
        <time>2021-07-01T21:25:53Z</time>
      </trkpt>
      <trkpt lat="44.57264" lon="-1.21904">
        <ele>40.03</ele>
        <time>2021-07-01T21:25:54Z</time>
      </trkpt>
      <trkpt lat="44.57258" lon="-1.21926">
        <ele>40.99</ele>
        <time>2021-07-01T21:25:55Z</time>
      </trkpt>
      <trkpt lat="44.57247" lon="-1.21972">
        <ele>41.47</ele>
        <time>2021-07-01T21:25:56Z</time>
      </trkpt>
      <trkpt lat="44.57177" lon="-1.22289">
        <ele>53.49</ele>
        <time>2021-07-01T21:26:11Z</time>
      </trkpt>
      <trkpt lat="44.57121" lon="-1.22532">
        <ele>49.16</ele>
        <time>2021-07-01T21:26:24Z</time>
      </trkpt>
      <trkpt lat="44.57114" lon="-1.2255">
        <ele>49.65</ele>
        <time>2021-07-01T21:26:25Z</time>
      </trkpt>
      <trkpt lat="44.57105" lon="-1.22567">
        <ele>48.68</ele>
        <time>2021-07-01T21:26:26Z</time>
      </trkpt>
      <trkpt lat="44.57096" lon="-1.22582">
        <ele>47.72</ele>
        <time>2021-07-01T21:26:27Z</time>
      </trkpt>
      <trkpt lat="44.57083" lon="-1.22596">
        <ele>46.28</ele>
        <time>2021-07-01T21:26:28Z</time>
      </trkpt>
      <trkpt lat="44.57071" lon="-1.2261">
        <ele>44.84</ele>
        <time>2021-07-01T21:26:29Z</time>
      </trkpt>
      <trkpt lat="44.57059" lon="-1.22624">
        <ele>43.4</ele>
        <time>2021-07-01T21:26:30Z</time>
      </trkpt>
      <trkpt lat="44.57044" lon="-1.22634">
        <ele>41.47</ele>
        <time>2021-07-01T21:26:31Z</time>
      </trkpt>
      <trkpt lat="44.57029" lon="-1.22644">
        <ele>40.51</ele>
        <time>2021-07-01T21:26:32Z</time>
      </trkpt>
      <trkpt lat="44.57014" lon="-1.22653">
        <ele>39.07</ele>
        <time>2021-07-01T21:26:33Z</time>
      </trkpt>
      <trkpt lat="44.56846" lon="-1.22722">
        <ele>21.29</ele>
        <time>2021-07-01T21:26:43Z</time>
      </trkpt>
      <trkpt lat="44.56736" lon="-1.22848">
        <ele>16</ele>
        <time>2021-07-01T21:26:51Z</time>
      </trkpt>
      <trkpt lat="44.56517" lon="-1.23148">
        <ele>7.83</ele>
        <time>2021-07-01T21:27:08Z</time>
      </trkpt>
      <trkpt lat="44.56469" lon="-1.23214">
        <ele>9.75</ele>
        <time>2021-07-01T21:27:12Z</time>
      </trkpt>
      <trkpt lat="44.56456" lon="-1.23225">
        <ele>10.23</ele>
        <time>2021-07-01T21:27:13Z</time>
      </trkpt>
      <trkpt lat="44.56443" lon="-1.23236">
        <ele>10.23</ele>
        <time>2021-07-01T21:27:14Z</time>
      </trkpt>
      <trkpt lat="44.5623" lon="-1.23348">
        <ele>11.19</ele>
        <time>2021-07-01T21:27:26Z</time>
      </trkpt>
      <trkpt lat="44.561" lon="-1.23441">
        <ele>14.08</ele>
        <time>2021-07-01T21:27:35Z</time>
      </trkpt>
      <trkpt lat="44.55946" lon="-1.2357">
        <ele>25.13</ele>
        <time>2021-07-01T21:27:46Z</time>
      </trkpt>
      <trkpt lat="44.55812" lon="-1.23589">
        <ele>31.38</ele>
        <time>2021-07-01T21:27:54Z</time>
      </trkpt>
      <trkpt lat="44.55667" lon="-1.23558">
        <ele>26.57</ele>
        <time>2021-07-01T21:28:04Z</time>
      </trkpt>
      <trkpt lat="44.55582" lon="-1.23578">
        <ele>26.57</ele>
        <time>2021-07-01T21:28:09Z</time>
      </trkpt>
      <trkpt lat="44.55393" lon="-1.23677">
        <ele>19.36</ele>
        <time>2021-07-01T21:28:22Z</time>
      </trkpt>
      <trkpt lat="44.55099" lon="-1.23832">
        <ele>7.35</ele>
        <time>2021-07-01T21:28:39Z</time>
      </trkpt>
      <trkpt lat="44.54815" lon="-1.23982">
        <ele>8.79</ele>
        <time>2021-07-01T21:28:56Z</time>
      </trkpt>
      <trkpt lat="44.54681" lon="-1.24048">
        <ele>5.42</ele>
        <time>2021-07-01T21:29:05Z</time>
      </trkpt>
      <trkpt lat="44.54624" lon="-1.24059">
        <ele>6.87</ele>
        <time>2021-07-01T21:29:12Z</time>
      </trkpt>
      <trkpt lat="44.54528" lon="-1.24043">
        <ele>6.39</ele>
        <time>2021-07-01T21:29:19Z</time>
      </trkpt>
      <trkpt lat="44.54299" lon="-1.23959">
        <ele>8.79</ele>
        <time>2021-07-01T21:29:32Z</time>
      </trkpt>
      <trkpt lat="44.53908" lon="-1.23815">
        <ele>9.75</ele>
        <time>2021-07-01T21:29:52Z</time>
      </trkpt>
      <trkpt lat="44.53681" lon="-1.23736">
        <ele>8.79</ele>
        <time>2021-07-01T21:30:04Z</time>
      </trkpt>
      <trkpt lat="44.53499" lon="-1.23748">
        <ele>8.79</ele>
        <time>2021-07-01T21:30:13Z</time>
      </trkpt>
      <trkpt lat="44.53141" lon="-1.23778">
        <ele>11.19</ele>
        <time>2021-07-01T21:30:31Z</time>
      </trkpt>
      <trkpt lat="44.52985" lon="-1.23758">
        <ele>10.23</ele>
        <time>2021-07-01T21:30:39Z</time>
      </trkpt>
      <trkpt lat="44.52689" lon="-1.23665">
        <ele>10.23</ele>
        <time>2021-07-01T21:30:54Z</time>
      </trkpt>
      <trkpt lat="44.52312" lon="-1.23552">
        <ele>11.19</ele>
        <time>2021-07-01T21:31:12Z</time>
      </trkpt>
      <trkpt lat="44.52102" lon="-1.23561">
        <ele>10.23</ele>
        <time>2021-07-01T21:31:22Z</time>
      </trkpt>
      <trkpt lat="44.51638" lon="-1.23585">
        <ele>10.71</ele>
        <time>2021-07-01T21:31:44Z</time>
      </trkpt>
      <trkpt lat="44.51394" lon="-1.23588">
        <ele>11.67</ele>
        <time>2021-07-01T21:31:56Z</time>
      </trkpt>
      <trkpt lat="44.51021" lon="-1.23506">
        <ele>12.15</ele>
        <time>2021-07-01T21:32:14Z</time>
      </trkpt>
      <trkpt lat="44.5076" lon="-1.23466">
        <ele>10.71</ele>
        <time>2021-07-01T21:32:27Z</time>
      </trkpt>
      <trkpt lat="44.50493" lon="-1.23493">
        <ele>10.23</ele>
        <time>2021-07-01T21:32:40Z</time>
      </trkpt>
      <trkpt lat="44.50127" lon="-1.23528">
        <ele>8.79</ele>
        <time>2021-07-01T21:32:57Z</time>
      </trkpt>
      <trkpt lat="44.49646" lon="-1.23575">
        <ele>9.75</ele>
        <time>2021-07-01T21:33:19Z</time>
      </trkpt>
      <trkpt lat="44.49269" lon="-1.23597">
        <ele>10.23</ele>
        <time>2021-07-01T21:33:36Z</time>
      </trkpt>
      <trkpt lat="44.48762" lon="-1.2365">
        <ele>9.75</ele>
        <time>2021-07-01T21:33:58Z</time>
      </trkpt>
      <trkpt lat="44.48476" lon="-1.23659">
        <ele>10.23</ele>
        <time>2021-07-01T21:34:11Z</time>
      </trkpt>
      <trkpt lat="44.48035" lon="-1.23583">
        <ele>11.67</ele>
        <time>2021-07-01T21:34:31Z</time>
      </trkpt>
      <trkpt lat="44.47633" lon="-1.23517">
        <ele>16</ele>
        <time>2021-07-01T21:34:51Z</time>
      </trkpt>
      <trkpt lat="44.47459" lon="-1.23533">
        <ele>13.6</ele>
        <time>2021-07-01T21:34:58Z</time>
      </trkpt>
      <trkpt lat="44.47254" lon="-1.23548">
        <ele>19.36</ele>
        <time>2021-07-01T21:35:09Z</time>
      </trkpt>
      <trkpt lat="44.4695" lon="-1.23476">
        <ele>19.84</ele>
        <time>2021-07-01T21:35:24Z</time>
      </trkpt>
      <trkpt lat="44.46777" lon="-1.2343">
        <ele>18.88</ele>
        <time>2021-07-01T21:35:33Z</time>
      </trkpt>
      <trkpt lat="44.46743" lon="-1.23409">
        <ele>19.36</ele>
        <time>2021-07-01T21:35:34Z</time>
      </trkpt>
      <trkpt lat="44.46743" lon="-1.23409">
        <ele>19.84</ele>
        <time>2021-07-01T21:35:35Z</time>
      </trkpt>
      <trkpt lat="44.46709" lon="-1.23385">
        <ele>19.84</ele>
        <time>2021-07-01T21:35:36Z</time>
      </trkpt>
      <trkpt lat="44.46709" lon="-1.23385">
        <ele>19.36</ele>
        <time>2021-07-01T21:35:37Z</time>
      </trkpt>
      <trkpt lat="44.46695" lon="-1.23367">
        <ele>19.84</ele>
        <time>2021-07-01T21:35:38Z</time>
      </trkpt>
      <trkpt lat="44.46681" lon="-1.23347">
        <ele>18.4</ele>
        <time>2021-07-01T21:35:39Z</time>
      </trkpt>
      <trkpt lat="44.46667" lon="-1.23328">
        <ele>17.92</ele>
        <time>2021-07-01T21:35:40Z</time>
      </trkpt>
      <trkpt lat="44.46588" lon="-1.23181">
        <ele>14.08</ele>
        <time>2021-07-01T21:35:47Z</time>
      </trkpt>
      <trkpt lat="44.46561" lon="-1.23151">
        <ele>13.6</ele>
        <time>2021-07-01T21:35:48Z</time>
      </trkpt>
      <trkpt lat="44.46561" lon="-1.23151">
        <ele>13.6</ele>
        <time>2021-07-01T21:35:49Z</time>
      </trkpt>
      <trkpt lat="44.46546" lon="-1.23136">
        <ele>13.6</ele>
        <time>2021-07-01T21:35:50Z</time>
      </trkpt>
      <trkpt lat="44.46532" lon="-1.23122">
        <ele>14.56</ele>
        <time>2021-07-01T21:35:51Z</time>
      </trkpt>
      <trkpt lat="44.46516" lon="-1.23114">
        <ele>15.52</ele>
        <time>2021-07-01T21:35:52Z</time>
      </trkpt>
      <trkpt lat="44.46499" lon="-1.23104">
        <ele>15.52</ele>
        <time>2021-07-01T21:35:53Z</time>
      </trkpt>
      <trkpt lat="44.46463" lon="-1.2309">
        <ele>14.56</ele>
        <time>2021-07-01T21:35:54Z</time>
      </trkpt>
      <trkpt lat="44.46444" lon="-1.23086">
        <ele>14.08</ele>
        <time>2021-07-01T21:35:55Z</time>
      </trkpt>
      <trkpt lat="44.46444" lon="-1.23086">
        <ele>14.08</ele>
        <time>2021-07-01T21:35:56Z</time>
      </trkpt>
      <trkpt lat="44.46407" lon="-1.23086">
        <ele>14.56</ele>
        <time>2021-07-01T21:35:57Z</time>
      </trkpt>
      <trkpt lat="44.46119" lon="-1.23086">
        <ele>14.08</ele>
        <time>2021-07-01T21:36:12Z</time>
      </trkpt>
      <trkpt lat="44.45737" lon="-1.23087">
        <ele>15.04</ele>
        <time>2021-07-01T21:36:32Z</time>
      </trkpt>
      <trkpt lat="44.45631" lon="-1.23094">
        <ele>15.04</ele>
        <time>2021-07-01T21:36:40Z</time>
      </trkpt>
      <trkpt lat="44.45621" lon="-1.23095">
        <ele>15.04</ele>
        <time>2021-07-01T21:36:41Z</time>
      </trkpt>
      <trkpt lat="44.45611" lon="-1.231">
        <ele>15.04</ele>
        <time>2021-07-01T21:36:42Z</time>
      </trkpt>
      <trkpt lat="44.45602" lon="-1.23109">
        <ele>15.04</ele>
        <time>2021-07-01T21:36:43Z</time>
      </trkpt>
      <trkpt lat="44.45595" lon="-1.23119">
        <ele>14.08</ele>
        <time>2021-07-01T21:36:44Z</time>
      </trkpt>
      <trkpt lat="44.4559" lon="-1.23132">
        <ele>14.56</ele>
        <time>2021-07-01T21:36:45Z</time>
      </trkpt>
      <trkpt lat="44.45584" lon="-1.23145">
        <ele>14.56</ele>
        <time>2021-07-01T21:36:46Z</time>
      </trkpt>
      <trkpt lat="44.45577" lon="-1.2316">
        <ele>13.12</ele>
        <time>2021-07-01T21:36:47Z</time>
      </trkpt>
      <trkpt lat="44.45573" lon="-1.23176">
        <ele>11.67</ele>
        <time>2021-07-01T21:36:48Z</time>
      </trkpt>
      <trkpt lat="44.45572" lon="-1.23192">
        <ele>9.75</ele>
        <time>2021-07-01T21:36:49Z</time>
      </trkpt>
      <trkpt lat="44.45571" lon="-1.23223">
        <ele>8.79</ele>
        <time>2021-07-01T21:36:50Z</time>
      </trkpt>
      <trkpt lat="44.45571" lon="-1.23223">
        <ele>6.87</ele>
        <time>2021-07-01T21:36:51Z</time>
      </trkpt>
      <trkpt lat="44.45576" lon="-1.23256">
        <ele>5.42</ele>
        <time>2021-07-01T21:36:52Z</time>
      </trkpt>
      <trkpt lat="44.45576" lon="-1.23256">
        <ele>4.46</ele>
        <time>2021-07-01T21:36:53Z</time>
      </trkpt>
      <trkpt lat="44.4558" lon="-1.23271">
        <ele>3.5</ele>
        <time>2021-07-01T21:36:54Z</time>
      </trkpt>
      <trkpt lat="44.45586" lon="-1.23285">
        <ele>3.98</ele>
        <time>2021-07-01T21:36:55Z</time>
      </trkpt>
      <trkpt lat="44.45597" lon="-1.23298">
        <ele>3.98</ele>
        <time>2021-07-01T21:36:56Z</time>
      </trkpt>
      <trkpt lat="44.45607" lon="-1.23311">
        <ele>3.5</ele>
        <time>2021-07-01T21:36:57Z</time>
      </trkpt>
      <trkpt lat="44.45766" lon="-1.23504">
        <ele>3.98</ele>
        <time>2021-07-01T21:37:10Z</time>
      </trkpt>
      <trkpt lat="44.45839" lon="-1.23627">
        <ele>5.91</ele>
        <time>2021-07-01T21:37:18Z</time>
      </trkpt>
      <trkpt lat="44.45862" lon="-1.23793">
        <ele>3.02</ele>
        <time>2021-07-01T21:37:27Z</time>
      </trkpt>
      <trkpt lat="44.45861" lon="-1.23811">
        <ele>3.02</ele>
        <time>2021-07-01T21:37:28Z</time>
      </trkpt>
      <trkpt lat="44.45861" lon="-1.23829">
        <ele>3.02</ele>
        <time>2021-07-01T21:37:29Z</time>
      </trkpt>
      <trkpt lat="44.4586" lon="-1.23846">
        <ele>3.02</ele>
        <time>2021-07-01T21:37:30Z</time>
      </trkpt>
      <trkpt lat="44.45858" lon="-1.23862">
        <ele>3.02</ele>
        <time>2021-07-01T21:37:31Z</time>
      </trkpt>
      <trkpt lat="44.45855" lon="-1.23877">
        <ele>3.98</ele>
        <time>2021-07-01T21:37:32Z</time>
      </trkpt>
      <trkpt lat="44.45845" lon="-1.23919">
        <ele>4.94</ele>
        <time>2021-07-01T21:37:35Z</time>
      </trkpt>
      <trkpt lat="44.45842" lon="-1.23929">
        <ele>5.42</ele>
        <time>2021-07-01T21:37:36Z</time>
      </trkpt>
      <trkpt lat="44.4584" lon="-1.23937">
        <ele>5.42</ele>
        <time>2021-07-01T21:37:37Z</time>
      </trkpt>
      <trkpt lat="44.45839" lon="-1.23944">
        <ele>5.42</ele>
        <time>2021-07-01T21:37:38Z</time>
      </trkpt>
      <trkpt lat="44.45844" lon="-1.23953">
        <ele>5.42</ele>
        <time>2021-07-01T21:37:39Z</time>
      </trkpt>
      <trkpt lat="44.45844" lon="-1.23958">
        <ele>5.42</ele>
        <time>2021-07-01T21:37:40Z</time>
      </trkpt>
      <trkpt lat="44.45843" lon="-1.23961">
        <ele>5.91</ele>
        <time>2021-07-01T21:37:41Z</time>
      </trkpt>
      <trkpt lat="44.45843" lon="-1.23961">
        <ele>5.91</ele>
        <time>2021-07-01T21:37:42Z</time>
      </trkpt>
      <trkpt lat="44.45832" lon="-1.23957">
        <ele>5.91</ele>
        <time>2021-07-01T21:37:43Z</time>
      </trkpt>
      <trkpt lat="44.45832" lon="-1.23957">
        <ele>5.91</ele>
        <time>2021-07-01T21:37:44Z</time>
      </trkpt>
      <trkpt lat="44.45827" lon="-1.2396">
        <ele>5.91</ele>
        <time>2021-07-01T21:37:45Z</time>
      </trkpt>
      <trkpt lat="44.45821" lon="-1.23964">
        <ele>5.91</ele>
        <time>2021-07-01T21:37:46Z</time>
      </trkpt>
      <trkpt lat="44.45814" lon="-1.23974">
        <ele>6.39</ele>
        <time>2021-07-01T21:37:47Z</time>
      </trkpt>
      <trkpt lat="44.45751" lon="-1.24044">
        <ele>5.91</ele>
        <time>2021-07-01T21:37:55Z</time>
      </trkpt>
      <trkpt lat="44.45674" lon="-1.24099">
        <ele>6.39</ele>
        <time>2021-07-01T21:38:05Z</time>
      </trkpt>
      <trkpt lat="44.45669" lon="-1.24102">
        <ele>6.87</ele>
        <time>2021-07-01T21:38:06Z</time>
      </trkpt>
      <trkpt lat="44.45666" lon="-1.24104">
        <ele>6.87</ele>
        <time>2021-07-01T21:38:07Z</time>
      </trkpt>
      <trkpt lat="44.45663" lon="-1.24106">
        <ele>6.87</ele>
        <time>2021-07-01T21:38:08Z</time>
      </trkpt>
      <trkpt lat="44.45667" lon="-1.24106">
        <ele>6.87</ele>
        <time>2021-07-01T21:38:09Z</time>
      </trkpt>
      <trkpt lat="44.4567" lon="-1.24108">
        <ele>6.39</ele>
        <time>2021-07-01T21:38:10Z</time>
      </trkpt>
      <trkpt lat="44.45673" lon="-1.24111">
        <ele>6.39</ele>
        <time>2021-07-01T21:38:11Z</time>
      </trkpt>
      <trkpt lat="44.45682" lon="-1.24118">
        <ele>5.91</ele>
        <time>2021-07-01T21:38:13Z</time>
      </trkpt>
      <trkpt lat="44.45707" lon="-1.24137">
        <ele>5.91</ele>
        <time>2021-07-01T21:38:18Z</time>
      </trkpt>
      <trkpt lat="44.45713" lon="-1.24141">
        <ele>5.91</ele>
        <time>2021-07-01T21:38:19Z</time>
      </trkpt>
      <trkpt lat="44.45724" lon="-1.2415">
        <ele>5.42</ele>
        <time>2021-07-01T21:38:20Z</time>
      </trkpt>
      <trkpt lat="44.45732" lon="-1.24162">
        <ele>5.42</ele>
        <time>2021-07-01T21:38:23Z</time>
      </trkpt>
      <trkpt lat="44.45777" lon="-1.24254">
        <ele>1.58</ele>
        <time>2021-07-01T21:38:34Z</time>
      </trkpt>
      <trkpt lat="44.45785" lon="-1.24291">
        <ele>1.1</ele>
        <time>2021-07-01T21:38:37Z</time>
      </trkpt>
      <trkpt lat="44.45785" lon="-1.24291">
        <ele>0.14</ele>
        <time>2021-07-01T21:38:38Z</time>
      </trkpt>
      <trkpt lat="44.45785" lon="-1.24316">
        <ele>0.14</ele>
        <time>2021-07-01T21:38:40Z</time>
      </trkpt>
      <trkpt lat="44.45785" lon="-1.24316">
        <ele>-0.34</ele>
        <time>2021-07-01T21:38:41Z</time>
      </trkpt>
      <trkpt lat="44.45785" lon="-1.24323">
        <ele>-0.82</ele>
        <time>2021-07-01T21:38:42Z</time>
      </trkpt>
      <trkpt lat="44.45785" lon="-1.2433">
        <ele>-0.82</ele>
        <time>2021-07-01T21:38:43Z</time>
      </trkpt>
      <trkpt lat="44.45786" lon="-1.24337">
        <ele>-1.3</ele>
        <time>2021-07-01T21:38:44Z</time>
      </trkpt>
      <trkpt lat="44.45789" lon="-1.24343">
        <ele>-1.79</ele>
        <time>2021-07-01T21:38:45Z</time>
      </trkpt>
      <trkpt lat="44.45791" lon="-1.24349">
        <ele>-2.27</ele>
        <time>2021-07-01T21:38:46Z</time>
      </trkpt>
      <trkpt lat="44.45794" lon="-1.24356">
        <ele>-2.75</ele>
        <time>2021-07-01T21:38:47Z</time>
      </trkpt>
      <trkpt lat="44.45796" lon="-1.24362">
        <ele>-2.27</ele>
        <time>2021-07-01T21:38:48Z</time>
      </trkpt>
      <trkpt lat="44.45809" lon="-1.24397">
        <ele>-3.71</ele>
        <time>2021-07-01T21:38:53Z</time>
      </trkpt>
      <trkpt lat="44.45815" lon="-1.2441">
        <ele>-4.19</ele>
        <time>2021-07-01T21:38:54Z</time>
      </trkpt>
      <trkpt lat="44.45831" lon="-1.24441">
        <ele>-6.59</ele>
        <time>2021-07-01T21:39:00Z</time>
      </trkpt>
      <trkpt lat="44.45835" lon="-1.24446">
        <ele>-7.07</ele>
        <time>2021-07-01T21:39:01Z</time>
      </trkpt>
      <trkpt lat="44.45842" lon="-1.24458">
        <ele>-8.03</ele>
        <time>2021-07-01T21:39:03Z</time>
      </trkpt>
      <trkpt lat="44.45863" lon="-1.24489">
        <ele>-12.84</ele>
        <time>2021-07-01T21:39:12Z</time>
      </trkpt>
      <trkpt lat="44.45868" lon="-1.24496">
        <ele>-10.44</ele>
        <time>2021-07-01T21:39:25Z</time>
      </trkpt>
      <trkpt lat="44.45868" lon="-1.24496">
        <ele>-10.44</ele>
        <time>2021-07-01T21:39:39Z</time>
      </trkpt>
      <trkpt lat="44.45868" lon="-1.24496">
        <ele>-9.96</ele>
        <time>2021-07-01T21:40:56Z</time>
      </trkpt>
      <trkpt lat="44.45868" lon="-1.24496">
        <ele>-9.96</ele>
        <time>2021-07-01T21:41:42Z</time>
      </trkpt>
      <trkpt lat="44.45868" lon="-1.24496">
        <ele>-9.96</ele>
        <time>2021-07-01T21:41:43Z</time>
      </trkpt>
      <trkpt lat="44.45878" lon="-1.24512">
        <ele>-9.96</ele>
        <time>2021-07-01T21:41:44Z</time>
      </trkpt>
      <trkpt lat="44.45879" lon="-1.24514">
        <ele>-9.96</ele>
        <time>2021-07-01T21:41:45Z</time>
      </trkpt>
      <trkpt lat="44.45879" lon="-1.24514">
        <ele>-10.44</ele>
        <time>2021-07-01T21:41:46Z</time>
      </trkpt>
      <trkpt lat="44.4588" lon="-1.24515">
        <ele>-10.44</ele>
        <time>2021-07-01T21:41:47Z</time>
      </trkpt>
      <trkpt lat="44.45881" lon="-1.24516">
        <ele>-11.4</ele>
        <time>2021-07-01T21:42:02Z</time>
      </trkpt>
      <trkpt lat="44.45895" lon="-1.24527">
        <ele>-12.84</ele>
        <time>2021-07-01T21:42:20Z</time>
      </trkpt>
      <trkpt lat="44.45923" lon="-1.24528">
        <ele>-16.69</ele>
        <time>2021-07-01T21:42:36Z</time>
      </trkpt>
      <trkpt lat="44.45949" lon="-1.24516">
        <ele>-19.57</ele>
        <time>2021-07-01T21:42:49Z</time>
      </trkpt>
      <trkpt lat="44.45957" lon="-1.24513">
        <ele>-19.57</ele>
        <time>2021-07-01T21:42:52Z</time>
      </trkpt>
      <trkpt lat="44.45959" lon="-1.24512">
        <ele>-19.57</ele>
        <time>2021-07-01T21:42:53Z</time>
      </trkpt>
      <trkpt lat="44.45962" lon="-1.24511">
        <ele>-19.57</ele>
        <time>2021-07-01T21:42:54Z</time>
      </trkpt>
      <trkpt lat="44.46007" lon="-1.24494">
        <ele>-16.69</ele>
        <time>2021-07-01T21:43:08Z</time>
      </trkpt>
      <trkpt lat="44.46059" lon="-1.24431">
        <ele>-14.76</ele>
        <time>2021-07-01T21:43:22Z</time>
      </trkpt>
      <trkpt lat="44.4609" lon="-1.2443">
        <ele>-13.8</ele>
        <time>2021-07-01T21:43:33Z</time>
      </trkpt>
      <trkpt lat="44.46116" lon="-1.24467">
        <ele>-14.76</ele>
        <time>2021-07-01T21:43:46Z</time>
      </trkpt>
      <trkpt lat="44.4613" lon="-1.24508">
        <ele>-13.8</ele>
        <time>2021-07-01T21:43:58Z</time>
      </trkpt>
      <trkpt lat="44.4614" lon="-1.24545">
        <ele>-15.72</ele>
        <time>2021-07-01T21:44:09Z</time>
      </trkpt>
      <trkpt lat="44.46132" lon="-1.24559">
        <ele>-15.24</ele>
        <time>2021-07-01T21:44:16Z</time>
      </trkpt>
      <trkpt lat="44.46091" lon="-1.24583">
        <ele>-9.96</ele>
        <time>2021-07-01T21:44:32Z</time>
      </trkpt>
      <trkpt lat="44.4608" lon="-1.24596">
        <ele>-4.67</ele>
        <time>2021-07-01T21:44:43Z</time>
      </trkpt>
      <trkpt lat="44.46062" lon="-1.24615">
        <ele>-2.27</ele>
        <time>2021-07-01T21:44:54Z</time>
      </trkpt>
      <trkpt lat="44.46022" lon="-1.24636">
        <ele>-0.82</ele>
        <time>2021-07-01T21:45:05Z</time>
      </trkpt>
      <trkpt lat="44.45993" lon="-1.24652">
        <ele>-0.82</ele>
        <time>2021-07-01T21:45:17Z</time>
      </trkpt>
      <trkpt lat="44.45963" lon="-1.24666">
        <ele>1.58</ele>
        <time>2021-07-01T21:45:28Z</time>
      </trkpt>
      <trkpt lat="44.45934" lon="-1.24667">
        <ele>3.5</ele>
        <time>2021-07-01T21:45:37Z</time>
      </trkpt>
      <trkpt lat="44.45914" lon="-1.24645">
        <ele>2.54</ele>
        <time>2021-07-01T21:45:47Z</time>
      </trkpt>
      <trkpt lat="44.45933" lon="-1.24617">
        <ele>1.58</ele>
        <time>2021-07-01T21:45:56Z</time>
      </trkpt>
      <trkpt lat="44.45934" lon="-1.24615">
        <ele>1.58</ele>
        <time>2021-07-01T21:45:58Z</time>
      </trkpt>
      <trkpt lat="44.45962" lon="-1.24612">
        <ele>0.14</ele>
        <time>2021-07-01T21:46:13Z</time>
      </trkpt>
      <trkpt lat="44.45987" lon="-1.24592">
        <ele>-0.34</ele>
        <time>2021-07-01T21:46:25Z</time>
      </trkpt>
      <trkpt lat="44.45991" lon="-1.24588">
        <ele>-1.79</ele>
        <time>2021-07-01T21:46:41Z</time>
      </trkpt>
      <trkpt lat="44.45993" lon="-1.24586">
        <ele>-1.79</ele>
        <time>2021-07-01T21:47:28Z</time>
      </trkpt>
      <trkpt lat="44.45992" lon="-1.24574">
        <ele>-1.79</ele>
        <time>2021-07-01T21:48:03Z</time>
      </trkpt>
      <trkpt lat="44.45992" lon="-1.24575">
        <ele>-2.27</ele>
        <time>2021-07-01T21:48:34Z</time>
      </trkpt>
      <trkpt lat="44.45992" lon="-1.24576">
        <ele>-2.75</ele>
        <time>2021-07-01T21:49:19Z</time>
      </trkpt>
    </trkseg>
  </trk>
</gpx>